Time;durP1;ratioP1;P1;durP2;ratioP2;P2;SDS_P1;SDS_P2;PMS_P1;PMS_P2;Temp;Humidity;BMP_temperature;BMP_pressure;BME280_temperature;BME280_humidity;BME280_pressure;Samples;Min_cycle;Max_cycle;Signal;HPM_P1;HPM_P2
2022/05/13 00:00:57;;;;;;;0.32;0.32;;;12.20;99.90;;;;;;5033899;28;20505;-82
2022/05/13 00:03:23;;;;;;;0.25;0.25;;;12.30;99.90;;;;;;5030601;28;20055;-82
2022/05/13 00:05:50;;;;;;;0.35;0.20;;;12.30;99.90;;;;;;5030766;28;20037;-82
2022/05/13 00:08:16;;;;;;;0.45;0.38;;;12.20;99.90;;;;;;5029500;28;20052;-82
2022/05/13 00:10:42;;;;;;;0.00;0.00;;;12.30;99.90;;;;;;5028516;28;20094;-82
2022/05/13 00:13:09;;;;;;;2.40;0.98;;;12.20;99.90;;;;;;5011646;28;20087;-82
2022/05/13 00:15:35;;;;;;;0.00;0.00;;;12.30;99.90;;;;;;5012426;28;20036;-85
2022/05/13 00:18:00;;;;;;;0.05;0.05;;;12.20;99.90;;;;;;5015878;28;20119;-85
2022/05/13 00:20:27;;;;;;;0.98;0.90;;;12.30;99.90;;;;;;5033261;28;20457;-85
2022/05/13 00:22:56;;;;;;;0.10;0.10;;;12.30;99.90;;;;;;5032598;28;20037;-85
2022/05/13 00:25:28;;;;;;;0.20;0.20;;;12.30;99.90;;;;;;5015859;28;20527;-85
2022/05/13 00:27:55;;;;;;;0.30;0.30;;;12.30;99.90;;;;;;5030285;28;20041;-85
2022/05/13 00:30:22;;;;;;;0.00;0.00;;;12.30;99.90;;;;;;5031852;28;20379;-85
2022/05/13 00:32:49;;;;;;;2.08;1.33;;;12.30;99.90;;;;;;5032036;28;20090;-85
2022/05/13 00:35:15;;;;;;;0.00;0.00;;;12.30;99.90;;;;;;5016020;28;20049;-85
2022/05/13 00:37:41;;;;;;;0.00;0.00;;;12.40;99.90;;;;;;5040790;28;20371;-85
2022/05/13 00:40:07;;;;;;;0.22;0.22;;;12.40;99.90;;;;;;5028461;28;20045;-85
2022/05/13 00:42:33;;;;;;;0.20;0.20;;;12.30;99.90;;;;;;5010678;28;20061;-86
2022/05/13 00:44:59;;;;;;;0.10;0.10;;;12.30;99.90;;;;;;5028054;28;20431;-85
2022/05/13 00:47:25;;;;;;;0.00;0.00;;;12.40;99.90;;;;;;5008917;28;20035;-85
2022/05/13 00:49:53;;;;;;;0.00;0.00;;;12.30;99.90;;;;;;5011767;28;20033;-86
2022/05/13 00:52:19;;;;;;;0.15;0.15;;;12.30;99.90;;;;;;5029222;28;20064;-85
2022/05/13 00:54:45;;;;;;;0.10;0.10;;;12.40;99.90;;;;;;5048565;28;20044;-86
2022/05/13 00:57:12;;;;;;;0.10;0.10;;;12.30;99.90;;;;;;5033087;28;20040;-85
2022/05/13 00:59:40;;;;;;;0.10;0.10;;;12.30;99.90;;;;;;5025791;28;20072;-85
2022/05/13 01:02:06;;;;;;;0.20;0.20;;;12.30;99.90;;;;;;5019229;28;20052;-85
2022/05/13 01:04:33;;;;;;;0.08;0.08;;;12.30;99.90;;;;;;5016874;28;20054;-85
2022/05/13 01:07:04;;;;;;;0.32;0.32;;;12.30;99.90;;;;;;5032805;28;20041;-82
2022/05/13 01:09:35;;;;;;;0.40;0.40;;;12.30;99.90;;;;;;5028551;28;20044;-81
2022/05/13 01:12:08;;;;;;;0.13;0.13;;;12.30;99.90;;;;;;5029185;28;20045;-82
2022/05/13 01:14:41;;;;;;;1.85;0.63;;;12.30;99.90;;;;;;5028044;28;20083;-82
2022/05/13 01:20:08;;;;;;;0.20;0.20;;;12.40;99.90;;;;;;5028546;28;20041;-81
2022/05/13 01:22:44;;;;;;;0.10;0.10;;;12.30;99.90;;;;;;5011503;28;20044;-82
2022/05/13 01:25:13;;;;;;;0.87;0.87;;;12.30;99.90;;;;;;5023900;28;20501;-82
2022/05/13 01:27:41;;;;;;;0.10;0.10;;;12.40;99.90;;;;;;5027490;28;20036;-82
2022/05/13 01:30:08;;;;;;;0.20;0.20;;;12.40;99.90;;;;;;5020142;28;20043;-81
2022/05/13 01:32:34;;;;;;;0.10;0.10;;;12.40;99.90;;;;;;5012827;28;20037;-81
2022/05/13 01:34:59;;;;;;;0.20;0.20;;;12.40;99.90;;;;;;4991064;28;20551;-81
2022/05/13 01:37:26;;;;;;;0.90;0.90;;;12.40;99.90;;;;;;5023410;28;20470;-81
2022/05/13 01:39:52;;;;;;;0.10;0.10;;;12.50;99.90;;;;;;5027609;28;20043;-85
2022/05/13 01:42:18;;;;;;;0.20;0.20;;;12.50;99.90;;;;;;5016061;28;20048;-85
2022/05/13 01:44:43;;;;;;;0.28;0.28;;;12.50;99.90;;;;;;5029593;28;20037;-85
2022/05/13 01:47:09;;;;;;;1.50;1.40;;;12.50;99.90;;;;;;5033582;28;20056;-85
2022/05/13 01:49:35;;;;;;;0.20;0.20;;;12.50;99.90;;;;;;4985763;28;20043;-86
2022/05/13 01:52:00;;;;;;;0.20;0.20;;;12.50;99.90;;;;;;5005907;28;20052;-86
2022/05/13 01:54:26;;;;;;;0.65;0.65;;;12.50;99.90;;;;;;5004894;28;20032;-85
2022/05/13 01:56:52;;;;;;;0.00;0.00;;;12.60;99.90;;;;;;5016924;28;20045;-85
2022/05/13 01:59:18;;;;;;;0.08;0.08;;;12.60;99.90;;;;;;5012823;28;20039;-86
2022/05/13 02:01:44;;;;;;;0.20;0.20;;;12.60;99.90;;;;;;5012814;28;20053;-86
2022/05/13 02:04:10;;;;;;;0.30;0.28;;;12.60;99.90;;;;;;5030319;28;20106;-86
2022/05/13 02:06:36;;;;;;;0.10;0.10;;;12.60;99.90;;;;;;4997921;28;20052;-86
2022/05/13 02:09:02;;;;;;;0.88;0.88;;;12.60;99.90;;;;;;5002278;28;20033;-85
2022/05/13 02:11:31;;;;;;;0.00;0.00;;;12.60;99.90;;;;;;5015827;28;20033;-85
2022/05/13 02:13:58;;;;;;;0.20;0.20;;;12.60;99.90;;;;;;5009173;28;20502;-81
2022/05/13 02:16:23;;;;;;;0.55;0.55;;;12.60;99.90;;;;;;5026817;28;20391;-81
2022/05/13 02:18:49;;;;;;;0.57;0.50;;;12.60;99.90;;;;;;5026260;28;20033;-81
2022/05/13 02:21:17;;;;;;;3.38;3.03;;;12.60;99.90;;;;;;5013408;28;20037;-82
2022/05/13 02:23:43;;;;;;;0.20;0.20;;;12.60;99.90;;;;;;5011796;28;20514;-82
2022/05/13 02:26:12;;;;;;;0.47;0.47;;;12.60;99.90;;;;;;5024145;28;20036;-82
2022/05/13 02:28:38;;;;;;;0.00;0.00;;;12.60;99.90;;;;;;5023371;28;20123;-85
2022/05/13 02:31:05;;;;;;;0.10;0.10;;;12.70;99.90;;;;;;5017341;28;20032;-85
2022/05/13 02:33:31;;;;;;;0.22;0.22;;;12.50;99.90;;;;;;5019384;28;20101;-86
2022/05/13 02:36:00;;;;;;;0.25;0.25;;;12.60;99.90;;;;;;5018554;28;20048;-85
2022/05/13 02:38:26;;;;;;;0.00;0.00;;;12.50;99.90;;;;;;5035918;28;20053;-85
2022/05/13 02:43:58;;;;;;;0.10;0.10;;;12.50;99.90;;;;;;5050678;28;20475;-85
2022/05/13 02:46:27;;;;;;;0.85;0.85;;;12.50;99.90;;;;;;5031455;28;20565;-86
2022/05/13 02:48:53;;;;;;;3.20;1.50;;;12.60;99.90;;;;;;5034881;28;20029;-85
2022/05/13 02:51:19;;;;;;;0.15;0.15;;;12.60;99.90;;;;;;5035188;28;20042;-86
2022/05/13 02:53:45;;;;;;;0.57;0.57;;;12.50;99.90;;;;;;5032480;28;20384;-86
2022/05/13 02:56:12;;;;;;;1.20;0.30;;;12.50;99.90;;;;;;5035774;28;20048;-86
2022/05/13 02:58:39;;;;;;;1.55;1.10;;;12.60;99.90;;;;;;5035374;28;20040;-85
2022/05/13 03:01:07;;;;;;;0.10;0.10;;;12.60;99.90;;;;;;5019154;28;20045;-86
2022/05/13 03:03:34;;;;;;;0.20;0.20;;;12.60;99.90;;;;;;5018721;28;20503;-85
2022/05/13 03:05:59;;;;;;;0.00;0.00;;;12.60;99.90;;;;;;5019301;28;20072;-86
2022/05/13 03:08:26;;;;;;;0.25;0.25;;;12.60;99.90;;;;;;5034029;28;20088;-86
2022/05/13 03:10:51;;;;;;;0.03;0.03;;;12.60;99.90;;;;;;5011830;28;20040;-85
2022/05/13 03:13:19;;;;;;;9.60;0.50;;;12.60;99.90;;;;;;5012039;28;20029;-86
2022/05/13 03:15:46;;;;;;;0.57;0.57;;;12.60;99.90;;;;;;5043286;28;20044;-86
2022/05/13 03:18:12;;;;;;;0.38;0.20;;;12.60;99.90;;;;;;5033246;28;20056;-86
2022/05/13 03:20:38;;;;;;;0.00;0.00;;;12.60;99.90;;;;;;5034297;28;20044;-86
2022/05/13 03:23:04;;;;;;;0.30;0.22;;;12.60;99.90;;;;;;5018242;28;20055;-86
2022/05/13 03:25:29;;;;;;;0.17;0.17;;;12.60;99.90;;;;;;5035284;28;20437;-86
2022/05/13 03:27:55;;;;;;;1.27;0.50;;;12.10;99.90;;;;;;5032109;28;20121;-85
2022/05/13 03:30:23;;;;;;;0.55;0.55;;;12.60;99.90;;;;;;5017380;28;20483;-86
2022/05/13 03:32:50;;;;;;;1.77;1.45;;;12.60;99.90;;;;;;5034939;28;20143;-85
2022/05/13 03:35:17;;;;;;;0.20;0.20;;;12.60;99.90;;;;;;5018508;28;20063;-86
2022/05/13 03:37:43;;;;;;;1.50;1.40;;;12.70;99.90;;;;;;5034121;28;20037;-86
2022/05/13 03:40:10;;;;;;;0.00;0.00;;;12.60;99.90;;;;;;5032778;28;20052;-85
2022/05/13 03:42:37;;;;;;;0.10;0.10;;;12.60;99.90;;;;;;5029407;28;20041;-86
2022/05/13 03:45:05;;;;;;;0.20;0.20;;;12.60;99.90;;;;;;5032956;28;20139;-86
2022/05/13 03:47:31;;;;;;;0.20;0.20;;;12.60;99.90;;;;;;5017990;28;20087;-85
2022/05/13 03:49:57;;;;;;;0.20;0.20;;;12.60;99.90;;;;;;5015081;28;20516;-85
2022/05/13 03:52:23;;;;;;;0.25;0.22;;;12.60;99.90;;;;;;5001936;28;20033;-86
2022/05/13 03:54:48;;;;;;;0.38;0.38;;;12.60;99.90;;;;;;5002029;28;20427;-86
2022/05/13 03:57:14;;;;;;;0.00;0.00;;;12.60;99.90;;;;;;5018048;28;20048;-86
2022/05/13 03:59:40;;;;;;;0.10;0.10;;;12.60;99.90;;;;;;5034891;28;20067;-85
2022/05/13 04:02:06;;;;;;;0.10;0.10;;;12.60;99.90;;;;;;5033055;28;20047;-86
2022/05/13 04:08:56;;;;;;;0.10;0.10;;;12.60;99.90;;;;;;5017028;28;20048;-86
2022/05/13 04:10:04;;;;;;;0.10;0.10;;;12.70;99.90;;;;;;5031894;28;20045;-81
2022/05/13 04:17:59;;;;;;;0.10;0.10;;;12.70;99.90;;;;;;5027571;28;20045;-81
2022/05/13 04:20:26;;;;;;;0.10;0.10;;;12.70;99.90;;;;;;5027862;22;20144;-80
2022/05/13 04:22:52;;;;;;;0.00;0.00;;;12.70;99.90;;;;;;5004438;28;20076;-80
2022/05/13 04:25:17;;;;;;;0.10;0.10;;;12.70;99.90;;;;;;5008498;28;20045;-85
2022/05/13 04:27:43;;;;;;;0.00;0.00;;;12.70;99.90;;;;;;5011016;28;20042;-85
2022/05/13 04:30:10;;;;;;;0.03;0.03;;;12.70;99.90;;;;;;5012349;28;20053;-86
2022/05/13 04:32:35;;;;;;;0.85;0.57;;;12.70;99.90;;;;;;5015814;28;20123;-86
2022/05/13 04:35:01;;;;;;;0.00;0.00;;;12.70;99.90;;;;;;4994294;28;20096;-86
2022/05/13 04:37:28;;;;;;;0.10;0.10;;;12.70;99.90;;;;;;4996011;28;20049;-85
2022/05/13 04:39:53;;;;;;;0.00;0.00;;;12.70;99.90;;;;;;4995646;28;20599;-86
2022/05/13 04:45:06;;;;;;;0.00;0.00;;;12.70;99.90;;;;;;5024080;28;20050;-85
2022/05/13 04:50:16;;;;;;;0.20;0.20;;;12.80;99.90;;;;;;4998882;28;20054;-85
2022/05/13 04:52:42;;;;;;;0.00;0.00;;;12.80;99.90;;;;;;4992404;28;20026;-85
2022/05/13 04:55:08;;;;;;;0.13;0.13;;;12.80;99.90;;;;;;4995959;28;20113;-85
2022/05/13 04:57:34;;;;;;;0.00;0.00;;;12.80;99.90;;;;;;5010676;28;20046;-85
2022/05/13 05:00:00;;;;;;;0.80;0.57;;;12.90;99.90;;;;;;5011847;28;20395;-86
2022/05/13 05:02:29;;;;;;;0.00;0.00;;;12.90;99.90;;;;;;4995683;28;20187;-86
2022/05/13 05:04:54;;;;;;;7.32;1.33;;;13.00;99.90;;;;;;4977035;28;21648;-86
2022/05/13 05:07:20;;;;;;;0.05;0.05;;;13.00;99.90;;;;;;4995042;28;20046;-85
2022/05/13 05:09:46;;;;;;;1.45;1.35;;;13.00;99.90;;;;;;4991579;28;20427;-86
2022/05/13 05:12:12;;;;;;;0.00;0.00;;;13.10;99.90;;;;;;4993819;28;20034;-87
2022/05/13 05:14:37;;;;;;;1.17;1.17;;;13.10;99.90;;;;;;4994022;28;20103;-87
2022/05/13 05:17:03;;;;;;;0.00;0.00;;;13.20;99.90;;;;;;4978904;28;20926;-86
2022/05/13 05:19:29;;;;;;;1.40;1.30;;;13.20;99.90;;;;;;4987120;28;20073;-85
2022/05/13 05:21:55;;;;;;;0.00;0.00;;;13.30;99.90;;;;;;4988476;28;20058;-85
2022/05/13 05:24:21;;;;;;;0.20;0.20;;;13.30;99.90;;;;;;5007238;28;20046;-85
2022/05/13 05:26:46;;;;;;;0.13;0.13;;;13.30;99.90;;;;;;5010357;28;20037;-85
2022/05/13 05:29:13;;;;;;;0.00;0.00;;;13.30;99.90;;;;;;4991332;28;20033;-86
2022/05/13 05:31:39;;;;;;;0.22;0.22;;;13.40;99.90;;;;;;4977593;28;20033;-85
2022/05/13 05:34:05;;;;;;;0.10;0.10;;;13.30;99.90;;;;;;5007926;28;20056;-80
2022/05/13 05:36:31;;;;;;;1.55;0.70;;;13.40;99.90;;;;;;5005916;28;20045;-80
2022/05/13 05:38:57;;;;;;;0.10;0.10;;;13.40;99.90;;;;;;5008172;28;20493;-80
2022/05/13 05:41:22;;;;;;;0.00;0.00;;;13.40;99.90;;;;;;5005796;28;20073;-81
2022/05/13 05:43:48;;;;;;;0.17;0.17;;;13.40;99.90;;;;;;4990536;28;20056;-81
2022/05/13 05:46:14;;;;;;;0.15;0.15;;;13.40;99.90;;;;;;5009101;28;20042;-80
2022/05/13 05:48:39;;;;;;;0.05;0.05;;;13.40;99.90;;;;;;4989542;28;20128;-80
2022/05/13 05:51:05;;;;;;;1.75;0.30;;;13.50;99.90;;;;;;5006424;28;20480;-80
2022/05/13 05:59:01;;;;;;;0.00;0.00;;;13.60;99.90;;;;;;5006770;28;20492;-80
2022/05/13 06:01:28;;;;;;;0.00;0.00;;;13.70;99.90;;;;;;5005196;28;20050;-80
2022/05/13 06:03:54;;;;;;;1.65;1.20;;;13.70;99.90;;;;;;5003775;28;20466;-80
2022/05/13 06:06:20;;;;;;;0.00;0.00;;;13.70;99.90;;;;;;5007885;28;20444;-85
2022/05/13 06:08:46;;;;;;;0.20;0.20;;;13.70;99.90;;;;;;5008799;28;20034;-86
2022/05/13 06:11:11;;;;;;;0.00;0.00;;;13.70;99.90;;;;;;4996464;28;20040;-85
2022/05/13 06:13:38;;;;;;;0.20;0.20;;;13.80;99.90;;;;;;5008231;28;20081;-85
2022/05/13 06:16:07;;;;;;;0.38;0.38;;;13.80;99.90;;;;;;5009329;28;20085;-85
2022/05/13 06:18:34;;;;;;;0.10;0.10;;;13.80;99.90;;;;;;5012524;28;20064;-85
2022/05/13 06:21:00;;;;;;;0.05;0.05;;;13.90;99.90;;;;;;5008008;28;20085;-86
2022/05/13 06:23:26;;;;;;;0.28;0.28;;;14.00;99.90;;;;;;5006026;28;20088;-81
2022/05/13 06:25:52;;;;;;;0.00;0.00;;;14.00;99.90;;;;;;5005917;28;20400;-81
2022/05/13 06:28:17;;;;;;;0.68;0.68;;;14.10;99.90;;;;;;4991021;28;20048;-81
2022/05/13 06:30:43;;;;;;;0.10;0.10;;;14.10;99.90;;;;;;4976378;28;20088;-81
2022/05/13 06:33:09;;;;;;;0.10;0.10;;;14.10;99.90;;;;;;4977166;28;20044;-82
2022/05/13 06:35:35;;;;;;;0.03;0.03;;;14.10;99.90;;;;;;5009028;28;20049;-81
2022/05/13 06:38:02;;;;;;;0.10;0.10;;;14.10;99.90;;;;;;5020923;28;20546;-81
2022/05/13 06:40:28;;;;;;;0.10;0.10;;;14.10;99.90;;;;;;4989761;28;20033;-81
2022/05/13 06:42:54;;;;;;;0.00;0.00;;;14.30;99.90;;;;;;5005861;28;20052;-81
2022/05/13 06:45:20;;;;;;;0.30;0.30;;;14.30;99.90;;;;;;5020506;28;20045;-81
2022/05/13 06:47:46;;;;;;;0.93;0.65;;;14.40;99.90;;;;;;5006014;28;20151;-81
2022/05/13 06:50:16;;;;;;;0.00;0.00;;;14.80;99.90;;;;;;4988231;28;20480;-82
2022/05/13 06:52:43;;;;;;;0.22;0.15;;;14.60;99.90;;;;;;5004916;28;20077;-81
2022/05/13 06:55:11;;;;;;;0.00;0.00;;;14.60;99.90;;;;;;5008024;28;20100;-85
2022/05/13 06:57:37;;;;;;;0.00;0.00;;;14.60;99.90;;;;;;5011581;28;20046;-87
2022/05/13 07:00:05;;;;;;;0.28;0.28;;;14.70;99.90;;;;;;5010971;28;20114;-86
2022/05/13 07:02:31;;;;;;;0.15;0.15;;;14.90;99.90;;;;;;5008580;28;20044;-86
2022/05/13 07:04:57;;;;;;;0.00;0.00;;;15.10;99.90;;;;;;4992524;28;20125;-86
2022/05/13 07:07:22;;;;;;;0.20;0.20;;;15.20;99.90;;;;;;5010974;28;20042;-86
2022/05/13 07:09:48;;;;;;;0.25;0.25;;;15.40;99.90;;;;;;5010338;28;20038;-87
2022/05/13 07:12:14;;;;;;;0.05;0.05;;;15.80;99.90;;;;;;4997033;28;20069;-82
2022/05/13 07:14:40;;;;;;;0.10;0.10;;;16.30;99.90;;;;;;5006603;28;20506;-81
2022/05/13 07:17:05;;;;;;;0.30;0.30;;;16.60;99.90;;;;;;4992231;28;20168;-81
2022/05/13 07:19:31;;;;;;;0.05;0.05;;;16.60;99.90;;;;;;5010930;28;20169;-81
2022/05/13 07:21:57;;;;;;;0.17;0.17;;;16.70;99.90;;;;;;5011754;28;20041;-81
2022/05/13 07:24:23;;;;;;;4.60;0.50;;;16.70;99.90;;;;;;5004402;28;20488;-82
2022/05/13 07:26:49;;;;;;;0.25;0.25;;;16.80;99.90;;;;;;5014474;28;20052;-81
2022/05/13 07:29:16;;;;;;;0.08;0.08;;;17.30;99.90;;;;;;4995925;28;20073;-86
2022/05/13 07:31:41;;;;;;;0.00;0.00;;;18.10;99.90;;;;;;4981496;28;20116;-86
2022/05/13 07:34:07;;;;;;;0.13;0.13;;;19.00;99.90;;;;;;5011716;28;20157;-86
2022/05/13 07:36:34;;;;;;;0.00;0.00;;;20.00;99.90;;;;;;5013038;28;20044;-86
2022/05/13 07:41:44;;;;;;;0.10;0.10;;;20.20;96.70;;;;;;5010992;28;20492;-86
2022/05/13 07:44:10;;;;;;;0.32;0.32;;;19.20;98.10;;;;;;5008979;28;20045;-86
2022/05/13 07:46:38;;;;;;;0.25;0.25;;;19.20;98.10;;;;;;5014883;28;20030;-86
2022/05/13 07:49:05;;;;;;;0.10;0.10;;;19.20;98.70;;;;;;5013240;28;20103;-86
2022/05/13 07:51:31;;;;;;;1.48;0.13;;;18.50;98.30;;;;;;4994190;28;20038;-86
2022/05/13 07:53:57;;;;;;;0.00;0.00;;;18.00;99.10;;;;;;5012894;28;20120;-86
2022/05/13 07:56:23;;;;;;;0.10;0.10;;;17.70;99.90;;;;;;5013888;28;20528;-86
2022/05/13 07:58:49;;;;;;;0.30;0.25;;;17.30;99.90;;;;;;5011685;28;20038;-86
2022/05/13 08:01:16;;;;;;;0.10;0.10;;;17.90;99.90;;;;;;5008618;28;20550;-86
2022/05/13 08:03:43;;;;;;;0.10;0.10;;;18.60;99.90;;;;;;4992729;28;20377;-82
2022/05/13 08:06:12;;;;;;;2.42;1.02;;;18.20;99.40;;;;;;5008893;28;20121;-82
2022/05/13 08:08:42;;;;;;;0.03;0.03;;;17.80;99.80;;;;;;5008473;28;20404;-82
2022/05/13 08:11:11;;;;;;;0.10;0.10;;;17.60;99.90;;;;;;5007222;28;20037;-82
2022/05/13 08:13:38;;;;;;;0.00;0.00;;;17.30;99.90;;;;;;4992105;28;20040;-83
2022/05/13 08:16:06;;;;;;;1.17;0.38;;;17.60;99.90;;;;;;5011353;28;20056;-82
2022/05/13 08:18:32;;;;;;;2.38;0.55;;;18.20;99.60;;;;;;4992125;28;20074;-88
2022/05/13 08:20:59;;;;;;;0.40;0.40;;;17.90;99.90;;;;;;5010707;28;20089;-87
2022/05/13 08:23:25;;;;;;;0.20;0.20;;;17.40;99.90;;;;;;5023733;28;20054;-87
2022/05/13 08:25:51;;;;;;;0.10;0.10;;;17.40;99.90;;;;;;5011085;28;20038;-88
2022/05/13 08:28:19;;;;;;;1.95;0.40;;;17.40;99.90;;;;;;5010845;28;20042;-87
2022/05/13 08:30:45;;;;;;;0.00;0.00;;;17.60;99.90;;;;;;5000257;28;20037;-87
2022/05/13 08:33:11;;;;;;;0.00;0.00;;;18.50;99.90;;;;;;4993270;28;20034;-87
2022/05/13 08:35:47;;;;;;;0.10;0.10;;;18.60;99.90;;;;;;5011253;28;20041;-82
2022/05/13 08:38:17;;;;;;;1.45;0.35;;;18.00;99.90;;;;;;5009720;28;20475;-82
2022/05/13 08:40:56;;;;;;;0.00;0.00;;;18.10;99.90;;;;;;5007972;28;20073;-81
2022/05/13 08:43:35;;;;;;;0.20;0.20;;;18.80;99.80;;;;;;5007200;28;20049;-81
2022/05/13 08:46:16;;;;;;;0.82;0.65;;;19.90;98.80;;;;;;5006838;28;20045;-82
2022/05/13 08:48:47;;;;;;;0.15;0.15;;;20.50;96.20;;;;;;4993838;28;20447;-82
2022/05/13 08:51:30;;;;;;;0.40;0.40;;;20.60;95.90;;;;;;5007392;28;20042;-82
2022/05/13 08:54:10;;;;;;;0.05;0.05;;;20.90;95.10;;;;;;4990178;28;20037;-82
2022/05/13 08:56:36;;;;;;;0.17;0.17;;;20.10;95.20;;;;;;4992330;28;20475;-82
2022/05/13 08:59:17;;;;;;;0.00;0.00;;;19.80;95.90;;;;;;5008447;28;20033;-82
2022/05/13 09:01:48;;;;;;;0.08;0.08;;;19.10;96.90;;;;;;5006930;28;20049;-81
2022/05/13 09:04:44;;;;;;;0.38;0.35;;;19.00;97.40;;;;;;4992807;28;20042;-81
2022/05/13 09:07:17;;;;;;;0.00;0.00;;;18.50;98.40;;;;;;4993871;28;20187;-81
2022/05/13 09:09:46;;;;;;;0.03;0.03;;;18.70;98.30;;;;;;5010297;28;20038;-86
2022/05/13 09:12:32;;;;;;;0.00;0.00;;;18.40;98.00;;;;;;5009579;28;20176;-85
2022/05/13 09:14:57;;;;;;;0.20;0.20;;;17.90;98.50;;;;;;5009674;28;20041;-86
2022/05/13 09:17:39;;;;;;;0.52;0.52;;;18.00;99.40;;;;;;4997393;28;20539;-86
2022/05/13 09:20:11;;;;;;;0.20;0.20;;;17.50;99.70;;;;;;4994701;28;20082;-86
2022/05/13 09:22:46;;;;;;;0.00;0.00;;;17.60;99.90;;;;;;5013085;28;20058;-85
2022/05/13 09:25:36;;;;;;;7.28;0.30;;;17.60;99.90;;;;;;5008002;28;20038;-81
2022/05/13 09:28:11;;;;;;;0.15;0.10;;;17.50;99.90;;;;;;5010570;28;20038;-80
2022/05/13 09:30:46;;;;;;;0.75;0.75;;;17.40;99.90;;;;;;5008181;28;20038;-83
2022/05/13 09:33:21;;;;;;;0.10;0.10;;;17.50;99.90;;;;;;5007426;28;20034;-80
2022/05/13 09:35:50;;;;;;;2.72;1.35;;;17.60;99.90;;;;;;5008722;28;20034;-80
2022/05/13 09:38:19;;;;;;;0.47;0.45;;;18.70;99.90;;;;;;4988093;28;20124;-80
2022/05/13 09:41:02;;;;;;;0.00;0.00;;;19.90;99.10;;;;;;5006971;28;20061;-80
2022/05/13 09:43:36;;;;;;;0.45;0.38;;;19.90;99.30;;;;;;5008251;28;20046;-80
2022/05/13 09:46:08;;;;;;;0.00;0.00;;;19.90;98.10;;;;;;5005545;28;21586;-81
2022/05/13 09:48:50;;;;;;;0.70;0.57;;;21.00;96.80;;;;;;4989651;28;20123;-80
2022/05/13 09:51:23;;;;;;;0.05;0.05;;;20.90;94.60;;;;;;5006719;28;20499;-80
2022/05/13 09:54:22;;;;;;;0.13;0.13;;;20.60;95.10;;;;;;5007002;28;20034;-80
2022/05/13 09:56:52;;;;;;;0.10;0.10;;;19.40;96.30;;;;;;5005526;28;20046;-80
2022/05/13 09:59:26;;;;;;;0.00;0.00;;;19.30;97.60;;;;;;5007084;28;20038;-80
2022/05/13 10:01:52;;;;;;;0.00;0.00;;;19.50;97.20;;;;;;5011929;28;20379;-79
2022/05/13 10:04:24;;;;;;;0.38;0.38;;;20.10;96.20;;;;;;5012074;28;20046;-79
2022/05/13 10:07:03;;;;;;;0.20;0.20;;;20.80;95.30;;;;;;5009915;28;20034;-79
2022/05/13 10:15:25;;;;;;;0.10;0.10;;;23.50;89.50;;;;;;5011600;28;20041;-80
2022/05/13 10:17:58;;;;;;;0.05;0.05;;;22.90;88.80;;;;;;4994759;28;20060;-80
2022/05/13 10:20:34;;;;;;;0.00;0.00;;;22.70;89.10;;;;;;5028016;28;20070;-80
2022/05/13 10:23:21;;;;;;;0.00;0.00;;;23.20;85.30;;;;;;4993217;28;20061;-80
2022/05/13 10:26:01;;;;;;;0.20;0.20;;;23.20;86.20;;;;;;5011203;28;20103;-80
2022/05/13 10:28:37;;;;;;;0.47;0.45;;;22.30;87.90;;;;;;5011668;28;20046;-80
2022/05/13 10:31:11;;;;;;;0.10;0.10;;;22.40;89.10;;;;;;5012540;28;20099;-79
2022/05/13 10:34:08;;;;;;;3.03;0.17;;;21.70;88.40;;;;;;5008709;28;20030;-80
2022/05/13 10:37:05;;;;;;;0.10;0.10;;;21.40;89.80;;;;;;5011277;28;20046;-80
2022/05/13 10:39:31;;;;;;;0.43;0.43;;;21.40;90.70;;;;;;5011058;28;20030;-79
2022/05/13 10:42:06;;;;;;;0.08;0.08;;;20.50;89.80;;;;;;5011812;28;20439;-80
2022/05/13 10:44:42;;;;;;;0.00;0.00;;;20.10;90.50;;;;;;5011306;28;20038;-79
2022/05/13 10:47:18;;;;;;;0.20;0.20;;;19.00;92.50;;;;;;5010928;28;20046;-79
2022/05/13 10:49:44;;;;;;;;;;;18.60;94.20;;;;;;5012021;28;20105;-83
2022/05/13 10:52:21;;;;;;;0.38;0.38;;;18.30;94.90;;;;;;5013273;28;20052;-83
2022/05/13 10:54:55;;;;;;;0.20;0.20;;;18.00;96.50;;;;;;5025424;28;20042;-83
2022/05/13 10:57:30;;;;;;;0.10;0.03;;;18.00;97.50;;;;;;5012077;28;20038;-83
2022/05/13 11:00:18;;;;;;;0.00;0.00;;;18.60;97.00;;;;;;4997431;28;20100;-83
2022/05/13 11:03:03;;;;;;;0.13;0.13;;;18.70;96.70;;;;;;5015206;28;20398;-84
2022/05/13 11:05:55;;;;;;;0.00;0.00;;;18.30;96.90;;;;;;5014886;28;20072;-83
2022/05/13 11:08:53;;;;;;;0.10;0.10;;;18.10;97.50;;;;;;4997086;28;20057;-84
2022/05/13 11:11:44;;;;;;;0.10;0.10;;;18.90;97.80;;;;;;4990215;28;20132;-83
2022/05/13 11:14:20;;;;;;;0.00;0.00;;;19.20;94.90;;;;;;4997659;28;20049;-84
2022/05/13 11:17:02;;;;;;;0.57;0.55;;;19.50;94.60;;;;;;4997986;28;20112;-83
2022/05/13 11:19:37;;;;;;;0.05;0.05;;;19.50;94.90;;;;;;5012235;28;20050;-84
2022/05/13 11:22:13;;;;;;;0.08;0.08;;;20.10;93.30;;;;;;5014895;28;20107;-83
2022/05/13 11:27:57;;;;;;;0.10;0.10;;;20.70;90.30;;;;;;5014118;28;20400;-83
2022/05/13 11:30:36;;;;;;;0.00;0.00;;;20.70;90.90;;;;;;5015279;28;20040;-84
2022/05/13 11:33:14;;;;;;;1.35;0.90;;;21.00;91.40;;;;;;5014957;28;20078;-83
2022/05/13 11:35:54;;;;;;;0.00;0.00;;;20.90;90.50;;;;;;5014512;28;20040;-83
2022/05/13 11:38:41;;;;;;;0.00;0.00;;;20.60;89.30;;;;;;5008083;28;20050;-83
2022/05/13 11:41:13;;;;;;;0.30;0.30;;;19.90;91.10;;;;;;5010574;28;20121;-81
2022/05/13 11:44:05;;;;;;;1.35;0.70;;;19.50;92.00;;;;;;5011985;28;20445;-80
2022/05/13 11:46:59;;;;;;;0.00;0.00;;;19.10;93.70;;;;;;5012630;28;20400;-80
2022/05/13 11:49:29;;;;;;;0.20;0.20;;;18.90;94.90;;;;;;5014413;28;20144;-80
2022/05/13 11:52:02;;;;;;;0.15;0.15;;;19.30;94.80;;;;;;5013332;28;20049;-80
2022/05/13 11:54:29;;;;;;;0.13;0.08;;;19.70;93.60;;;;;;5029788;28;20084;-80
2022/05/13 11:57:23;;;;;;;0.00;0.00;;;19.90;93.60;;;;;;5004306;28;20202;-79
2022/05/13 11:59:56;;;;;;;0.20;0.20;;;19.80;93.80;;;;;;5005969;28;20125;-79
2022/05/13 12:03:01;;;;;;;0.10;0.10;;;19.60;94.00;;;;;;5013621;28;20042;-79
2022/05/13 12:05:33;;;;;;;0.08;0.08;;;19.50;94.20;;;;;;5014851;28;20442;-79
2022/05/13 12:08:07;;;;;;;0.50;0.40;;;18.50;95.40;;;;;;5013884;28;20042;-79
2022/05/13 12:10:46;;;;;;;0.10;0.10;;;18.60;96.60;;;;;;5014278;28;20042;-79
2022/05/13 12:13:32;;;;;;;0.38;0.17;;;19.00;95.90;;;;;;5013704;28;20044;-80
2022/05/13 12:16:46;;;;;;;0.10;0.10;;;19.70;95.40;;;;;;4997453;28;20033;-80
2022/05/13 12:19:14;;;;;;;0.10;0.10;;;20.40;93.70;;;;;;4946650;28;20620;-80
2022/05/13 12:22:05;;;;;;;0.22;0.20;;;20.30;93.80;;;;;;4954680;29;20075;-80
2022/05/13 12:25:08;;;;;;;0.00;0.00;;;20.20;93.80;;;;;;4986699;28;20520;-80
2022/05/13 12:27:44;;;;;;;0.10;0.10;;;20.00;93.80;;;;;;5013469;28;20042;-80
2022/05/13 12:30:30;;;;;;;;;;;19.50;94.40;;;;;;5014617;28;20399;-84
2022/05/13 12:33:23;;;;;;;1.05;0.38;;;19.00;95.10;;;;;;4997058;28;19917;-84
2022/05/13 12:39:04;;;;;;;10.40;0.55;;;19.20;94.50;;;;;;5013841;28;20133;-84
2022/05/13 12:41:43;;;;;;;2.05;0.28;;;19.20;94.70;;;;;;5013733;28;20037;-83
2022/05/13 12:44:24;;;;;;;5.05;1.90;;;18.70;95.30;;;;;;5013405;28;20042;-83
2022/05/13 12:46:52;;;;;;;0.15;0.15;;;18.20;95.60;;;;;;5007319;28;20081;-84
2022/05/13 12:49:26;;;;;;;0.00;0.00;;;18.50;95.40;;;;;;5022617;28;20038;-83
2022/05/13 12:52:14;;;;;;;0.00;0.00;;;18.30;94.50;;;;;;5013965;28;20046;-84
2022/05/13 12:55:07;;;;;;;6.03;2.03;;;18.20;94.30;;;;;;5013210;28;20052;-83
2022/05/13 12:57:47;;;;;;;0.08;0.08;;;18.30;93.80;;;;;;5029499;28;20060;-83
2022/05/13 13:00:34;;;;;;;1.98;0.50;;;18.40;94.70;;;;;;5013224;28;20042;-84
2022/05/13 13:03:03;;;;;;;0.65;0.65;;;18.60;94.90;;;;;;5029692;28;20033;-79
2022/05/13 13:05:34;;;;;;;0.63;0.38;;;18.80;94.90;;;;;;5013341;28;20137;-79
2022/05/13 13:08:18;;;;;;;0.00;0.00;;;19.00;95.00;;;;;;5003177;28;20035;-79
2022/05/13 13:10:57;;;;;;;0.00;0.00;;;19.30;94.80;;;;;;5010189;28;20046;-80
2022/05/13 13:13:47;;;;;;;0.10;0.10;;;19.20;94.70;;;;;;5011863;28;20046;-79
2022/05/13 13:16:33;;;;;;;0.93;0.93;;;18.90;94.20;;;;;;5008663;28;20029;-79
2022/05/13 13:19:17;;;;;;;0.35;0.35;;;19.00;94.00;;;;;;5012334;28;20135;-80
2022/05/13 13:21:43;;;;;;;1.35;0.70;;;18.90;94.20;;;;;;5013356;28;20045;-80
2022/05/13 13:24:16;;;;;;;0.10;0.10;;;18.90;94.10;;;;;;5012708;28;20456;-80
2022/05/13 13:26:47;;;;;;;0.47;0.35;;;19.10;94.20;;;;;;5012343;28;20046;-80
2022/05/13 13:29:20;;;;;;;0.20;0.15;;;19.30;93.70;;;;;;5012500;28;20041;-80
2022/05/13 13:31:48;;;;;;;0.00;0.00;;;19.40;93.70;;;;;;5013413;28;20069;-80
2022/05/13 13:34:39;;;;;;;0.63;0.30;;;19.30;93.80;;;;;;5012836;28;20113;-80
2022/05/13 13:37:12;;;;;;;2.03;0.63;;;19.50;93.50;;;;;;4996909;28;20038;-86
2022/05/13 13:39:38;;;;;;;0.00;0.00;;;19.60;94.00;;;;;;4998705;28;20117;-86
2022/05/13 13:42:09;;;;;;;0.10;0.10;;;19.50;92.80;;;;;;5013507;28;20113;-86
2022/05/13 13:44:36;;;;;;;0.10;0.10;;;19.10;93.60;;;;;;5009030;28;20057;-86
2022/05/13 13:47:05;;;;;;;0.10;0.10;;;19.20;93.40;;;;;;4993180;28;20049;-85